sensor_id;sensor_type;location;lat;lon;timestamp;P1;durP1;ratioP1;P2;durP2;ratioP2
37019;SDS011;22932;52.442;16.896;2022-09-20T10:14:33;1.40;;;1.20;;
37019;SDS011;22932;52.442;16.896;2022-09-20T10:17:18;1.50;;;1.10;;
37019;SDS011;22932;52.442;16.896;2022-09-20T10:20:02;1.10;;;1.10;;
37019;SDS011;22932;52.442;16.896;2022-09-20T10:25:48;1.00;;;1.00;;
37019;SDS011;22932;52.442;16.896;2022-09-20T10:28:27;1.30;;;1.10;;
37019;SDS011;22932;52.442;16.896;2022-09-20T10:31:16;2.60;;;1.10;;
37019;SDS011;22932;52.442;16.896;2022-09-20T10:34:19;1.30;;;1.20;;
37019;SDS011;22932;52.442;16.896;2022-09-20T22:13:47;4.60;;;2.90;;
37019;SDS011;22932;52.442;16.896;2022-09-20T22:16:20;3.10;;;2.80;;
37019;SDS011;22932;52.442;16.896;2022-09-20T22:18:50;3.30;;;3.00;;
37019;SDS011;22932;52.442;16.896;2022-09-20T22:21:19;3.00;;;2.70;;
37019;SDS011;22932;52.442;16.896;2022-09-20T22:23:48;3.30;;;2.80;;
37019;SDS011;22932;52.442;16.896;2022-09-20T22:26:18;3.30;;;2.90;;
37019;SDS011;22932;52.442;16.896;2022-09-20T22:28:48;3.50;;;3.20;;
37019;SDS011;22932;52.442;16.896;2022-09-20T22:31:17;3.20;;;2.80;;
37019;SDS011;22932;52.442;16.896;2022-09-20T22:33:49;3.50;;;3.20;;
37019;SDS011;22932;52.442;16.896;2022-09-20T22:36:19;3.40;;;3.10;;
37019;SDS011;22932;52.442;16.896;2022-09-20T22:38:49;4.50;;;3.50;;
37019;SDS011;22932;52.442;16.896;2022-09-20T22:41:19;4.00;;;3.30;;
37019;SDS011;22932;52.442;16.896;2022-09-20T22:43:48;3.70;;;3.30;;
37019;SDS011;22932;52.442;16.896;2022-09-20T22:46:19;4.10;;;3.70;;
37019;SDS011;22932;52.442;16.896;2022-09-20T22:48:49;4.50;;;3.70;;
37019;SDS011;22932;52.442;16.896;2022-09-20T22:51:17;4.30;;;3.20;;
37019;SDS011;22932;52.442;16.896;2022-09-20T22:53:45;3.90;;;3.50;;
37019;SDS011;22932;52.442;16.896;2022-09-20T22:56:15;5.20;;;4.70;;
37019;SDS011;22932;52.442;16.896;2022-09-20T22:58:45;4.00;;;3.60;;
37019;SDS011;22932;52.442;16.896;2022-09-20T23:01:18;4.70;;;4.20;;
37019;SDS011;22932;52.442;16.896;2022-09-20T23:03:51;4.60;;;4.20;;
37019;SDS011;22932;52.442;16.896;2022-09-20T23:06:22;6.90;;;4.70;;
37019;SDS011;22932;52.442;16.896;2022-09-20T23:08:55;6.90;;;5.50;;
37019;SDS011;22932;52.442;16.896;2022-09-20T23:11:23;5.90;;;4.30;;
37019;SDS011;22932;52.442;16.896;2022-09-20T23:13:52;4.30;;;3.90;;
37019;SDS011;22932;52.442;16.896;2022-09-20T23:16:21;4.70;;;4.20;;
37019;SDS011;22932;52.442;16.896;2022-09-20T23:18:51;5.00;;;4.50;;
37019;SDS011;22932;52.442;16.896;2022-09-20T23:21:21;5.10;;;4.40;;
37019;SDS011;22932;52.442;16.896;2022-09-20T23:23:51;5.00;;;4.30;;
37019;SDS011;22932;52.442;16.896;2022-09-20T23:26:20;5.80;;;3.80;;
37019;SDS011;22932;52.442;16.896;2022-09-20T23:28:51;6.40;;;4.50;;
37019;SDS011;22932;52.442;16.896;2022-09-20T23:31:24;4.70;;;4.20;;
37019;SDS011;22932;52.442;16.896;2022-09-20T23:33:54;4.30;;;3.70;;
37019;SDS011;22932;52.442;16.896;2022-09-20T23:36:25;5.30;;;4.00;;
37019;SDS011;22932;52.442;16.896;2022-09-20T23:38:55;5.90;;;4.20;;
37019;SDS011;22932;52.442;16.896;2022-09-20T23:41:24;5.50;;;4.10;;
37019;SDS011;22932;52.442;16.896;2022-09-20T23:43:52;3.80;;;3.50;;
37019;SDS011;22932;52.442;16.896;2022-09-20T23:46:21;3.90;;;3.40;;
37019;SDS011;22932;52.442;16.896;2022-09-20T23:48:50;4.40;;;4.00;;
37019;SDS011;22932;52.442;16.896;2022-09-20T23:51:19;5.50;;;3.60;;
37019;SDS011;22932;52.442;16.896;2022-09-20T23:53:50;4.40;;;4.00;;
37019;SDS011;22932;52.442;16.896;2022-09-20T23:56:19;4.50;;;4.10;;
37019;SDS011;22932;52.442;16.896;2022-09-20T23:58:48;4.30;;;3.90;;
